Time;durP1;ratioP1;P1;durP2;ratioP2;P2;SDS_P1;SDS_P2;PMS_P1;PMS_P2;Temp;Humidity;BMP_temperature;BMP_pressure;BME280_temperature;BME280_humidity;BME280_pressure;Samples;Min_cycle;Max_cycle;Signal;HPM_P1;HPM_P2
2022/05/13 00:01:19;;;;;;;2.78;2.58;;;19.30;70.10;;;;;;5047787;28;20037;-63
2022/05/13 00:03:45;;;;;;;2.60;2.40;;;19.30;70.40;;;;;;5045491;28;20061;-64
2022/05/13 00:06:11;;;;;;;6.38;2.80;;;19.20;70.40;;;;;;5048477;28;20105;-64
2022/05/13 00:08:37;;;;;;;2.95;2.72;;;19.20;70.40;;;;;;5050044;28;20044;-64
2022/05/13 00:11:05;;;;;;;3.45;2.85;;;19.30;70.40;;;;;;5045203;28;20033;-64
2022/05/13 00:13:31;;;;;;;3.50;2.55;;;19.30;70.50;;;;;;5046629;28;20036;-62
2022/05/13 00:15:57;;;;;;;2.85;2.65;;;19.30;70.60;;;;;;5045541;28;20037;-64
2022/05/13 00:18:23;;;;;;;5.70;2.80;;;19.20;70.70;;;;;;5047969;28;20064;-64
2022/05/13 00:20:48;;;;;;;3.22;2.78;;;19.30;70.90;;;;;;5050206;28;20124;-65
2022/05/13 00:23:14;;;;;;;3.58;2.92;;;19.20;71.00;;;;;;5049107;28;20033;-64
2022/05/13 00:25:41;;;;;;;2.80;2.60;;;19.20;71.00;;;;;;5046698;28;20460;-65
2022/05/13 00:28:08;;;;;;;2.75;2.38;;;19.30;71.10;;;;;;5050229;28;20044;-65
2022/05/13 00:30:40;;;;;;;4.85;3.15;;;19.20;71.20;;;;;;5050357;28;20036;-65
2022/05/13 00:33:06;;;;;;;3.20;2.58;;;19.20;71.40;;;;;;5043280;28;20094;-62
2022/05/13 00:35:32;;;;;;;2.92;2.72;;;19.20;71.40;;;;;;5047736;28;20065;-65
2022/05/13 00:37:58;;;;;;;3.35;2.90;;;19.20;71.50;;;;;;5044233;28;20649;-64
2022/05/13 00:40:24;;;;;;;3.45;2.67;;;19.20;71.40;;;;;;5046664;28;20429;-66
2022/05/13 00:42:50;;;;;;;3.58;3.25;;;19.10;71.60;;;;;;5044317;28;20041;-64
2022/05/13 00:45:17;;;;;;;2.70;2.45;;;19.10;71.80;;;;;;5046868;28;20025;-65
2022/05/13 00:47:45;;;;;;;2.63;2.42;;;19.10;71.70;;;;;;5050204;28;20076;-65
2022/05/13 00:50:14;;;;;;;5.90;2.78;;;19.10;71.90;;;;;;5049879;28;20039;-65
2022/05/13 00:52:43;;;;;;;2.75;2.55;;;19.10;72.00;;;;;;5045532;28;20427;-63
2022/05/13 00:55:14;;;;;;;3.08;2.78;;;19.10;72.10;;;;;;5048974;28;20039;-65
2022/05/13 00:57:40;;;;;;;3.00;2.80;;;19.00;72.30;;;;;;5053958;28;20357;-64
2022/05/13 01:00:12;;;;;;;2.92;2.67;;;19.10;72.30;;;;;;5048829;28;20157;-64
2022/05/13 01:02:43;;;;;;;3.60;2.70;;;19.00;72.30;;;;;;5044874;28;20311;-64
2022/05/13 01:05:09;;;;;;;3.20;2.50;;;19.00;72.10;;;;;;5048694;28;20035;-64
2022/05/13 01:07:35;;;;;;;2.60;2.40;;;19.00;72.10;;;;;;5049629;28;20037;-63
2022/05/13 01:10:04;;;;;;;2.42;2.15;;;19.00;72.20;;;;;;5049703;28;20077;-64
2022/05/13 01:12:35;;;;;;;2.25;2.15;;;19.00;72.30;;;;;;5042245;28;20049;-64
2022/05/13 01:15:07;;;;;;;2.72;2.53;;;18.90;72.00;;;;;;5051294;28;20068;-64
2022/05/13 01:20:24;;;;;;;3.17;2.40;;;18.90;72.30;;;;;;5051953;28;20051;-62
2022/05/13 01:22:56;;;;;;;2.80;2.50;;;18.80;72.50;;;;;;5050316;28;20452;-64
2022/05/13 01:25:24;;;;;;;2.47;2.30;;;18.80;73.00;;;;;;5046225;28;20636;-64
2022/05/13 01:27:51;;;;;;;5.68;2.90;;;18.70;72.90;;;;;;5048613;28;20396;-64
2022/05/13 01:30:27;;;;;;;4.80;2.60;;;18.70;73.20;;;;;;5056327;28;20134;-64
2022/05/13 01:32:53;;;;;;;5.50;2.80;;;18.60;73.30;;;;;;5050845;28;20056;-64
2022/05/13 01:35:19;;;;;;;3.47;2.60;;;18.60;73.20;;;;;;5047722;28;20589;-65
2022/05/13 01:37:45;;;;;;;3.42;2.47;;;18.60;73.50;;;;;;5053825;28;20064;-64
2022/05/13 01:40:12;;;;;;;2.92;2.72;;;18.60;73.70;;;;;;5050786;28;20619;-63
2022/05/13 01:42:38;;;;;;;3.55;2.63;;;18.50;73.80;;;;;;5050970;28;20040;-64
2022/05/13 01:45:07;;;;;;;3.38;3.08;;;18.50;74.80;;;;;;5056153;28;20431;-63
2022/05/13 01:47:33;;;;;;;4.60;3.00;;;18.50;73.90;;;;;;5056357;28;20099;-64
2022/05/13 01:49:59;;;;;;;3.28;2.67;;;18.40;73.70;;;;;;5053263;28;20526;-64
2022/05/13 01:52:24;;;;;;;3.03;2.80;;;18.40;73.70;;;;;;5051017;28;20029;-64
2022/05/13 01:54:50;;;;;;;2.88;2.58;;;18.40;74.30;;;;;;5047856;28;20082;-64
2022/05/13 01:57:16;;;;;;;3.35;3.05;;;18.40;73.90;;;;;;5052550;28;20552;-64
2022/05/13 01:59:42;;;;;;;2.83;2.63;;;18.40;73.90;;;;;;5055951;28;20040;-64
2022/05/13 02:02:08;;;;;;;4.10;2.92;;;18.40;74.10;;;;;;5054074;28;20471;-64
2022/05/13 02:04:33;;;;;;;3.28;2.97;;;18.40;74.20;;;;;;5049043;28;20063;-64
2022/05/13 02:06:59;;;;;;;3.30;3.00;;;18.40;74.10;;;;;;5052700;28;20069;-64
2022/05/13 02:09:25;;;;;;;3.05;2.75;;;18.50;74.00;;;;;;5052020;28;20101;-64
2022/05/13 02:11:52;;;;;;;3.20;2.90;;;18.50;73.90;;;;;;5047948;28;20430;-64
2022/05/13 02:14:18;;;;;;;3.03;2.83;;;18.50;74.00;;;;;;5054001;28;20456;-64
2022/05/13 02:16:44;;;;;;;3.30;3.00;;;18.50;74.10;;;;;;5050542;28;20048;-64
2022/05/13 02:19:10;;;;;;;3.40;3.10;;;18.40;73.90;;;;;;5056255;28;20036;-64
2022/05/13 02:21:37;;;;;;;3.25;3.05;;;18.50;73.90;;;;;;5052028;28;21140;-64
2022/05/13 02:24:04;;;;;;;3.25;2.95;;;18.40;73.90;;;;;;5051038;28;20472;-64
2022/05/13 02:26:30;;;;;;;3.30;3.00;;;18.40;74.00;;;;;;5050097;28;20045;-65
2022/05/13 02:28:59;;;;;;;3.30;3.00;;;18.40;74.00;;;;;;5050594;28;20075;-64
2022/05/13 02:31:25;;;;;;;5.07;2.85;;;18.40;74.10;;;;;;5053118;28;20399;-65
2022/05/13 02:33:51;;;;;;;3.72;2.90;;;18.30;74.10;;;;;;5051408;28;20041;-64
2022/05/13 02:36:17;;;;;;;3.33;3.03;;;18.30;74.20;;;;;;5051964;28;20091;-64
2022/05/13 02:38:42;;;;;;;3.30;2.70;;;18.30;74.30;;;;;;5048056;28;20033;-64
2022/05/13 02:41:14;;;;;;;3.17;2.88;;;18.30;74.50;;;;;;5050718;28;20033;-64
2022/05/13 02:43:54;;;;;;;3.10;2.88;;;18.30;74.60;;;;;;5049335;28;20029;-64
2022/05/13 02:46:22;;;;;;;3.00;2.80;;;18.30;75.00;;;;;;5050614;28;20029;-63
2022/05/13 02:48:48;;;;;;;6.63;3.03;;;18.30;74.90;;;;;;5051785;28;20393;-64
2022/05/13 02:51:15;;;;;;;3.08;2.80;;;18.30;74.70;;;;;;5050396;28;20044;-64
2022/05/13 02:53:41;;;;;;;3.67;2.88;;;18.30;74.70;;;;;;5048306;28;20025;-64
2022/05/13 02:56:07;;;;;;;2.58;2.40;;;18.30;74.60;;;;;;5048644;28;20037;-64
2022/05/13 02:58:34;;;;;;;3.95;2.50;;;18.30;74.60;;;;;;5049661;28;20831;-64
2022/05/13 03:01:02;;;;;;;3.25;2.92;;;18.30;74.70;;;;;;5051760;28;20542;-64
2022/05/13 03:03:28;;;;;;;2.80;2.60;;;18.30;74.70;;;;;;5053649;28;20040;-63
2022/05/13 03:05:53;;;;;;;2.80;2.60;;;18.30;74.70;;;;;;5049176;28;20044;-65
2022/05/13 03:08:19;;;;;;;5.75;2.75;;;18.30;74.80;;;;;;5055199;28;20036;-64
2022/05/13 03:10:46;;;;;;;2.85;2.60;;;18.30;74.90;;;;;;5055396;28;20052;-65
2022/05/13 03:13:13;;;;;;;2.80;2.60;;;18.30;74.90;;;;;;5049607;28;20053;-64
2022/05/13 03:15:39;;;;;;;2.55;2.33;;;18.20;74.90;;;;;;5053060;28;20120;-64
2022/05/13 03:18:05;;;;;;;3.45;2.70;;;18.20;74.90;;;;;;5055095;28;20515;-64
2022/05/13 03:20:31;;;;;;;3.00;2.58;;;18.20;75.00;;;;;;5048062;28;20453;-64
2022/05/13 03:22:56;;;;;;;2.95;2.72;;;18.20;75.10;;;;;;5047373;28;20082;-64
2022/05/13 03:25:22;;;;;;;2.92;2.72;;;18.20;75.30;;;;;;5051710;28;20648;-64
2022/05/13 03:27:48;;;;;;;3.80;2.90;;;18.20;75.40;;;;;;5047655;28;20515;-64
2022/05/13 03:30:17;;;;;;;4.47;2.63;;;18.10;75.60;;;;;;5055816;28;20048;-64
2022/05/13 03:32:42;;;;;;;3.15;2.75;;;18.10;75.80;;;;;;5049920;28;20492;-64
2022/05/13 03:35:11;;;;;;;2.85;2.65;;;18.10;75.90;;;;;;5047274;28;20039;-64
2022/05/13 03:37:37;;;;;;;3.72;2.70;;;18.00;76.10;;;;;;5048020;28;20090;-64
2022/05/13 03:40:03;;;;;;;2.95;2.75;;;18.00;76.00;;;;;;5045181;28;20458;-64
2022/05/13 03:42:29;;;;;;;3.03;2.72;;;18.00;76.20;;;;;;5046414;28;20048;-65
2022/05/13 03:44:56;;;;;;;3.42;2.30;;;18.10;76.30;;;;;;5049799;28;20543;-65
2022/05/13 03:47:21;;;;;;;3.10;2.60;;;18.10;76.20;;;;;;5049204;28;20090;-64
2022/05/13 03:49:47;;;;;;;3.05;2.83;;;18.10;76.30;;;;;;5050563;28;20036;-65
2022/05/13 03:52:13;;;;;;;2.95;2.75;;;18.10;76.30;;;;;;5051807;28;20385;-65
2022/05/13 03:54:39;;;;;;;3.03;2.80;;;18.20;76.40;;;;;;5044101;28;20044;-65
2022/05/13 03:57:08;;;;;;;3.20;2.60;;;18.20;76.50;;;;;;5047380;28;20040;-65
2022/05/13 03:59:35;;;;;;;3.17;2.88;;;18.30;76.80;;;;;;5046802;28;20044;-64
2022/05/13 04:02:02;;;;;;;3.22;2.95;;;18.30;76.60;;;;;;5048446;28;20029;-65
2022/05/13 04:04:29;;;;;;;2.90;2.60;;;18.30;76.70;;;;;;5046390;28;20054;-65
2022/05/13 04:09:41;;;;;;;2.92;2.65;;;18.30;76.60;;;;;;5057722;28;20071;-65
2022/05/13 04:17:36;;;;;;;2.63;2.45;;;18.40;76.40;;;;;;5054675;28;20411;-65
2022/05/13 04:20:02;;;;;;;2.92;2.65;;;18.40;76.30;;;;;;5052839;28;20037;-65
2022/05/13 04:22:28;;;;;;;6.28;2.90;;;18.40;76.40;;;;;;5051264;28;20123;-65
2022/05/13 04:24:54;;;;;;;5.22;2.90;;;18.40;76.30;;;;;;5053421;28;20500;-63
2022/05/13 04:27:20;;;;;;;7.07;4.43;;;18.40;76.30;;;;;;5050688;28;20250;-64
2022/05/13 04:29:46;;;;;;;10.13;6.95;;;18.40;76.50;;;;;;5046223;28;20040;-65
2022/05/13 04:32:11;;;;;;;5.05;3.92;;;18.40;76.50;;;;;;5042379;28;20029;-65
2022/05/13 04:34:37;;;;;;;3.38;3.08;;;18.40;76.40;;;;;;5043955;28;20044;-64
2022/05/13 04:37:03;;;;;;;3.38;3.08;;;18.40;76.30;;;;;;5050620;28;20688;-64
2022/05/13 04:39:29;;;;;;;3.78;3.28;;;18.40;76.20;;;;;;5051946;28;20043;-64
2022/05/13 04:44:39;;;;;;;3.50;3.20;;;18.40;76.50;;;;;;5050248;28;20723;-64
2022/05/13 04:48:15;;;;;;;8.95;6.47;;;18.40;76.40;;;;;;5053247;28;20049;-64
2022/05/13 04:49:51;;;;;;;4.43;4.03;;;18.40;76.40;;;;;;5049977;28;20044;-64
2022/05/13 04:52:17;;;;;;;3.30;3.10;;;18.40;76.40;;;;;;5054270;28;20143;-64
2022/05/13 04:54:42;;;;;;;5.32;3.00;;;18.30;76.40;;;;;;5055937;28;20029;-65
2022/05/13 04:57:08;;;;;;;3.72;3.33;;;18.30;76.50;;;;;;5053958;28;20056;-64
2022/05/13 04:59:33;;;;;;;4.68;4.18;;;18.30;76.70;;;;;;5053236;28;20036;-65
2022/05/13 05:01:59;;;;;;;5.57;3.40;;;18.30;76.80;;;;;;5053571;28;20681;-64
2022/05/13 05:04:24;;;;;;;9.38;3.58;;;18.30;76.80;;;;;;5051108;28;20120;-64
2022/05/13 05:06:50;;;;;;;13.27;3.67;;;18.40;76.80;;;;;;5053003;28;20093;-64
2022/05/13 05:09:16;;;;;;;5.10;3.35;;;18.40;76.80;;;;;;5052318;28;20068;-64
2022/05/13 05:11:41;;;;;;;6.90;3.35;;;18.40;76.90;;;;;;5052229;28;20036;-65
2022/05/13 05:14:07;;;;;;;8.93;4.00;;;18.40;76.70;;;;;;5051753;28;20033;-64
2022/05/13 05:16:33;;;;;;;7.60;4.35;;;18.40;76.70;;;;;;5053958;28;20527;-64
2022/05/13 05:18:59;;;;;;;9.05;4.70;;;18.40;76.80;;;;;;5051356;28;20116;-64
2022/05/13 05:21:26;;;;;;;4.32;3.50;;;18.50;76.90;;;;;;5057416;28;20594;-65
2022/05/13 05:23:51;;;;;;;4.97;3.38;;;18.50;77.00;;;;;;5054063;28;20029;-64
2022/05/13 05:26:17;;;;;;;3.10;2.85;;;18.50;76.90;;;;;;5053148;28;20033;-64
2022/05/13 05:28:43;;;;;;;3.80;3.08;;;18.50;77.00;;;;;;5049783;28;20090;-64
2022/05/13 05:31:11;;;;;;;4.15;3.45;;;18.50;77.00;;;;;;5051473;28;20033;-64
2022/05/13 05:33:37;;;;;;;4.45;3.42;;;18.60;77.10;;;;;;5051981;28;20024;-64
2022/05/13 05:36:03;;;;;;;4.25;3.80;;;18.60;77.20;;;;;;5050027;28;20130;-63
2022/05/13 05:38:28;;;;;;;4.45;3.85;;;18.60;77.50;;;;;;5051837;28;20411;-64
2022/05/13 05:40:55;;;;;;;4.03;3.50;;;18.60;77.50;;;;;;5054614;28;20048;-64
2022/05/13 05:43:21;;;;;;;3.92;3.63;;;18.70;77.50;;;;;;5051286;28;20033;-64
2022/05/13 05:45:47;;;;;;;4.07;3.65;;;18.80;77.30;;;;;;5053539;28;20039;-64
2022/05/13 05:48:15;;;;;;;4.00;3.60;;;18.80;77.20;;;;;;5053106;28;20021;-64
2022/05/13 05:50:41;;;;;;;5.45;3.65;;;18.80;77.10;;;;;;5056226;28;20076;-65
2022/05/13 05:53:07;;;;;;;3.67;3.38;;;18.90;77.00;;;;;;5051592;28;20098;-64
2022/05/13 05:58:18;;;;;;;4.05;3.47;;;19.00;77.30;;;;;;5051710;28;20451;-65
2022/05/13 06:00:49;;;;;;;4.07;3.17;;;19.00;77.20;;;;;;5056270;28;20311;-65
2022/05/13 06:03:16;;;;;;;3.58;3.28;;;19.10;77.40;;;;;;5055093;28;20032;-65
2022/05/13 06:05:44;;;;;;;3.45;3.20;;;19.10;77.40;;;;;;5053594;28;20037;-65
2022/05/13 06:08:09;;;;;;;3.55;3.25;;;19.20;77.30;;;;;;5052533;28;20465;-64
2022/05/13 06:10:35;;;;;;;3.42;3.13;;;19.30;77.20;;;;;;5049401;28;20044;-64
2022/05/13 06:13:02;;;;;;;3.97;3.60;;;19.30;77.00;;;;;;5054395;28;20025;-64
2022/05/13 06:15:28;;;;;;;4.15;3.47;;;19.40;76.90;;;;;;5058583;28;20047;-64
2022/05/13 06:17:56;;;;;;;4.85;3.63;;;19.40;76.60;;;;;;5057274;28;20036;-64
2022/05/13 06:20:24;;;;;;;3.85;3.47;;;19.50;76.60;;;;;;5058888;28;20037;-65
2022/05/13 06:22:50;;;;;;;4.93;3.55;;;19.60;76.60;;;;;;5053294;28;20029;-65
2022/05/13 06:25:19;;;;;;;3.63;3.30;;;19.60;76.10;;;;;;5054602;28;20044;-65
2022/05/13 06:27:45;;;;;;;3.75;3.45;;;19.70;76.10;;;;;;5055398;28;20075;-65
2022/05/13 06:30:20;;;;;;;4.43;3.65;;;19.70;75.80;;;;;;5055991;28;20036;-65
2022/05/13 06:32:46;;;;;;;4.82;4.13;;;19.70;75.70;;;;;;5055212;28;20037;-64
2022/05/13 06:35:11;;;;;;;7.47;3.80;;;19.70;75.40;;;;;;5067886;28;20031;-65
2022/05/13 06:37:37;;;;;;;3.83;3.53;;;19.70;75.10;;;;;;5053788;28;20044;-65
2022/05/13 06:40:04;;;;;;;4.63;3.20;;;19.80;74.90;;;;;;5057720;28;20032;-64
2022/05/13 06:42:30;;;;;;;6.45;4.13;;;19.80;74.70;;;;;;5055132;28;20045;-65
2022/05/13 06:44:56;;;;;;;4.22;3.75;;;19.80;74.90;;;;;;5056380;28;20395;-65
2022/05/13 06:47:21;;;;;;;4.28;3.42;;;19.80;74.90;;;;;;5055482;28;20040;-65
2022/05/13 06:49:47;;;;;;;4.90;3.83;;;19.80;74.90;;;;;;5058180;28;20526;-65
2022/05/13 06:52:13;;;;;;;6.00;3.78;;;19.90;74.90;;;;;;5056257;28;20043;-65
2022/05/13 06:54:42;;;;;;;4.60;4.10;;;19.90;75.10;;;;;;5052070;28;20413;-64
2022/05/13 06:57:09;;;;;;;5.82;3.92;;;19.90;75.10;;;;;;5054692;28;20036;-65
2022/05/13 06:59:35;;;;;;;5.28;3.88;;;19.90;75.10;;;;;;5056606;28;20687;-65
2022/05/13 07:02:00;;;;;;;4.25;3.85;;;19.90;75.10;;;;;;5054448;28;20043;-64
2022/05/13 07:04:26;;;;;;;4.75;4.00;;;20.00;75.20;;;;;;5053108;28;20493;-63
2022/05/13 07:06:52;;;;;;;6.20;3.97;;;20.00;75.40;;;;;;5053977;28;20035;-65
2022/05/13 07:09:17;;;;;;;7.57;4.25;;;20.00;75.10;;;;;;5055378;28;20029;-65
2022/05/13 07:11:44;;;;;;;5.05;4.00;;;20.00;75.00;;;;;;5055157;28;20412;-65
2022/05/13 07:14:11;;;;;;;4.55;4.10;;;20.00;75.00;;;;;;5056404;28;20479;-65
2022/05/13 07:16:36;;;;;;;6.18;4.22;;;20.10;75.10;;;;;;5051691;28;20040;-64
2022/05/13 07:19:02;;;;;;;6.03;4.10;;;20.10;75.00;;;;;;5054075;28;20163;-65
2022/05/13 07:21:28;;;;;;;5.05;4.55;;;20.10;74.90;;;;;;5055719;28;20435;-65
2022/05/13 07:23:53;;;;;;;8.45;4.22;;;20.20;74.90;;;;;;5053598;28;20640;-65
2022/05/13 07:26:19;;;;;;;7.38;4.13;;;20.10;74.50;;;;;;5055609;28;20048;-65
2022/05/13 07:28:44;;;;;;;4.80;3.90;;;20.10;74.40;;;;;;5053517;28;20449;-65
2022/05/13 07:31:10;;;;;;;4.95;4.13;;;20.10;75.20;;;;;;5055251;28;20060;-65
2022/05/13 07:33:36;;;;;;;5.72;4.13;;;20.10;74.30;;;;;;5056145;28;20418;-65
2022/05/13 07:36:03;;;;;;;5.35;4.13;;;20.10;74.50;;;;;;5053509;28;20045;-65
2022/05/13 07:38:30;;;;;;;8.23;4.30;;;20.10;74.60;;;;;;5056859;28;20127;-65
2022/05/13 07:43:41;;;;;;;7.00;4.20;;;20.20;74.40;;;;;;5054357;28;20035;-64
2022/05/13 07:46:07;;;;;;;6.63;3.97;;;20.20;74.30;;;;;;5054949;28;20731;-64
2022/05/13 07:48:33;;;;;;;6.07;4.47;;;20.20;74.40;;;;;;5053751;28;20095;-64
2022/05/13 07:50:59;;;;;;;6.20;4.35;;;20.20;74.20;;;;;;5054341;28;20037;-63
2022/05/13 07:53:25;;;;;;;6.70;4.60;;;20.20;74.10;;;;;;5054469;28;20036;-64
2022/05/13 07:55:50;;;;;;;4.75;4.20;;;20.20;74.00;;;;;;5054784;28;20036;-64
2022/05/13 07:58:16;;;;;;;6.20;4.10;;;20.20;74.00;;;;;;5050989;28;20078;-64
2022/05/13 08:00:43;;;;;;;4.75;4.35;;;20.30;74.00;;;;;;5051526;28;20492;-65
2022/05/13 08:03:12;;;;;;;6.85;4.40;;;20.30;73.70;;;;;;5049373;28;20722;-64
2022/05/13 08:05:44;;;;;;;4.90;4.40;;;20.30;73.80;;;;;;5055475;28;20036;-64
2022/05/13 08:08:11;;;;;;;4.70;4.13;;;20.30;73.50;;;;;;5055786;28;20036;-65
2022/05/13 08:10:38;;;;;;;6.43;4.07;;;20.30;73.30;;;;;;5052326;28;20032;-64
2022/05/13 08:13:04;;;;;;;6.88;4.72;;;20.30;73.30;;;;;;5055400;28;20033;-64
2022/05/13 08:15:31;;;;;;;5.70;4.40;;;20.40;73.60;;;;;;5055057;28;20037;-64
2022/05/13 08:17:57;;;;;;;5.05;4.20;;;20.40;73.50;;;;;;5052267;28;20559;-64
2022/05/13 08:20:23;;;;;;;6.55;5.13;;;20.40;73.20;;;;;;5054518;28;20052;-63
2022/05/13 08:22:48;;;;;;;5.57;4.85;;;20.40;73.10;;;;;;5054574;28;20056;-64
2022/05/13 08:25:14;;;;;;;7.95;4.55;;;20.40;73.10;;;;;;5053718;28;20492;-65
2022/05/13 08:27:40;;;;;;;7.80;4.72;;;20.40;74.00;;;;;;5056242;28;20028;-65
2022/05/13 08:30:06;;;;;;;8.48;4.80;;;20.40;72.60;;;;;;5053071;28;20082;-65
2022/05/13 08:32:33;;;;;;;7.57;4.43;;;20.40;72.50;;;;;;5054756;28;20094;-65
2022/05/13 08:34:59;;;;;;;5.15;4.60;;;20.40;72.50;;;;;;5053681;28;20120;-65
2022/05/13 08:37:25;;;;;;;6.07;4.50;;;20.40;72.40;;;;;;5055462;28;20040;-65
2022/05/13 08:39:50;;;;;;;6.15;4.53;;;20.40;72.30;;;;;;5053274;28;20037;-65
2022/05/13 08:42:44;;;;;;;5.35;4.80;;;20.30;72.40;;;;;;5051546;28;20041;-64
2022/05/13 08:45:11;;;;;;;5.82;4.47;;;20.30;73.20;;;;;;5054969;28;20032;-65
2022/05/13 08:47:49;;;;;;;4.55;3.83;;;20.30;73.00;;;;;;5057769;28;20041;-65
2022/05/13 08:50:26;;;;;;;5.78;3.00;;;20.20;73.40;;;;;;5057177;28;20099;-66
2022/05/13 08:53:07;;;;;;;8.13;3.38;;;20.10;74.00;;;;;;5056915;28;20369;-66
2022/05/13 08:55:49;;;;;;;5.97;2.95;;;20.00;74.60;;;;;;5052433;28;20033;-66
2022/05/13 08:58:23;;;;;;;4.90;2.72;;;19.80;74.20;;;;;;5053116;28;20037;-66
2022/05/13 09:00:50;;;;;;;4.60;2.05;;;19.50;75.20;;;;;;5053580;28;20083;-67
2022/05/13 09:03:27;;;;;;;6.20;2.00;;;19.20;75.40;;;;;;5051928;28;20035;-64
2022/05/13 09:06:03;;;;;;;3.42;1.70;;;18.90;76.90;;;;;;5053617;28;20029;-65
2022/05/13 09:08:29;;;;;;;5.18;1.40;;;18.70;76.50;;;;;;5055726;28;20056;-65
2022/05/13 09:11:14;;;;;;;2.55;1.67;;;18.50;76.90;;;;;;5052399;28;20037;-65
2022/05/13 09:14:00;;;;;;;4.40;1.55;;;18.30;78.90;;;;;;5053186;28;20131;-65
2022/05/13 09:16:41;;;;;;;4.40;1.60;;;18.20;78.20;;;;;;5048696;28;20549;-65
2022/05/13 09:19:14;;;;;;;2.17;1.30;;;18.10;80.30;;;;;;5053200;28;20049;-65
2022/05/13 09:21:43;;;;;;;4.72;1.70;;;18.00;79.60;;;;;;5052755;28;20035;-65
2022/05/13 09:24:10;;;;;;;3.83;1.30;;;17.90;79.90;;;;;;5052280;28;20752;-65
2022/05/13 09:26:38;;;;;;;2.20;1.58;;;17.80;80.20;;;;;;5053515;28;20043;-65
2022/05/13 09:29:13;;;;;;;3.33;1.70;;;17.80;80.70;;;;;;5053763;28;20037;-65
2022/05/13 09:31:41;;;;;;;;;;;17.70;83.20;;;;;;5054578;28;20035;-65
2022/05/13 09:34:28;;;;;;;2.83;1.27;;;17.80;83.10;;;;;;5053941;28;20009;-65
2022/05/13 09:37:16;;;;;;;3.10;1.50;;;17.80;83.20;;;;;;5052365;28;20056;-64
2022/05/13 09:39:45;;;;;;;2.35;1.48;;;17.80;83.10;;;;;;5052725;28;20044;-64
2022/05/13 09:42:22;;;;;;;4.75;1.63;;;17.80;82.60;;;;;;5059090;28;20090;-65
2022/05/13 09:44:48;;;;;;;2.25;1.50;;;17.90;82.60;;;;;;5053794;28;20057;-64
2022/05/13 09:47:24;;;;;;;2.60;1.63;;;17.90;81.50;;;;;;5054419;28;20120;-65
2022/05/13 09:49:52;;;;;;;3.22;1.80;;;18.00;81.70;;;;;;5058071;28;20036;-64
2022/05/13 09:52:34;;;;;;;3.92;1.92;;;18.00;81.50;;;;;;5058824;28;20033;-64
2022/05/13 09:55:23;;;;;;;5.40;2.30;;;18.00;81.50;;;;;;5056625;28;20041;-65
2022/05/13 09:57:53;;;;;;;4.78;2.08;;;18.00;81.30;;;;;;5056568;28;20514;-65
2022/05/13 10:00:29;;;;;;;4.00;2.20;;;18.00;80.60;;;;;;5055558;28;20048;-63
2022/05/13 10:03:18;;;;;;;5.35;2.20;;;18.00;81.30;;;;;;5058327;28;20046;-65
2022/05/13 10:05:51;;;;;;;5.40;2.25;;;18.10;81.10;;;;;;5055180;28;20029;-64
2022/05/13 10:08:20;;;;;;;4.85;2.35;;;18.10;80.50;;;;;;5053961;28;20033;-65
2022/05/13 10:13:57;;;;;;;5.75;2.50;;;18.20;80.60;;;;;;5057047;28;20067;-65
2022/05/13 10:16:34;;;;;;;6.60;2.75;;;18.20;80.00;;;;;;5057602;28;20051;-65
2022/05/13 10:19:08;;;;;;;6.80;2.65;;;18.30;79.40;;;;;;5055024;28;20037;-65
2022/05/13 10:21:55;;;;;;;5.85;2.40;;;18.30;80.00;;;;;;5055888;28;20040;-66
2022/05/13 10:24:29;;;;;;;5.85;2.80;;;18.40;79.10;;;;;;5054904;28;20136;-64
2022/05/13 10:26:58;;;;;;;4.13;2.47;;;18.50;79.40;;;;;;5054070;28;20561;-64
2022/05/13 10:29:39;;;;;;;3.72;2.50;;;18.50;79.30;;;;;;5054168;28;20704;-64
2022/05/13 10:32:19;;;;;;;6.00;2.72;;;18.60;78.40;;;;;;5052971;28;20076;-65
2022/05/13 10:34:53;;;;;;;7.25;2.80;;;18.60;77.10;;;;;;5058898;28;20068;-64
2022/05/13 10:37:37;;;;;;;26.77;2.70;;;18.70;77.90;;;;;;5056887;28;20122;-64
2022/05/13 10:40:09;;;;;;;4.80;2.20;;;18.70;76.70;;;;;;5055168;28;20102;-64
2022/05/13 10:42:42;;;;;;;4.78;2.60;;;18.80;76.60;;;;;;5052425;28;20120;-64
2022/05/13 10:45:21;;;;;;;7.82;2.65;;;18.90;77.00;;;;;;5052282;28;20039;-65
2022/05/13 10:47:52;;;;;;;6.15;2.70;;;19.00;75.80;;;;;;5054933;28;20033;-65
2022/05/13 10:50:24;;;;;;;6.22;2.55;;;19.10;75.60;;;;;;5055058;28;20032;-65
2022/05/13 10:52:58;;;;;;;5.40;2.30;;;19.10;73.70;;;;;;5056743;28;20029;-65
2022/05/13 10:55:32;;;;;;;4.75;2.33;;;19.20;74.60;;;;;;5054553;28;20036;-64
2022/05/13 10:58:27;;;;;;;6.32;2.40;;;19.20;73.90;;;;;;5057266;28;20033;-65
2022/05/13 11:01:09;;;;;;;6.13;2.43;;;19.20;73.70;;;;;;5054271;28;20058;-64
2022/05/13 11:03:50;;;;;;;4.97;2.78;;;19.30;72.90;;;;;;5052826;28;20021;-64
2022/05/13 11:06:33;;;;;;;5.70;2.58;;;19.30;72.30;;;;;;5054802;28;20043;-65
2022/05/13 11:09:14;;;;;;;7.45;3.03;;;19.40;72.30;;;;;;5054784;28;20047;-63
2022/05/13 11:11:41;;;;;;;5.22;2.80;;;19.40;72.60;;;;;;5057229;28;20048;-65
2022/05/13 11:14:35;;;;;;;5.07;2.65;;;19.40;73.20;;;;;;5053818;28;20030;-65
2022/05/13 11:17:26;;;;;;;7.22;2.90;;;19.50;73.60;;;;;;5056458;28;20609;-65
2022/05/13 11:20:18;;;;;;;6.60;3.08;;;19.60;73.00;;;;;;5058136;28;20578;-65
2022/05/13 11:23:00;;;;;;;4.60;2.85;;;19.70;73.00;;;;;;5056559;28;20539;-65
2022/05/13 11:26:16;;;;;;;7.90;3.30;;;19.70;73.00;;;;;;5054261;28;20032;-65
2022/05/13 11:28:36;;;;;;;4.63;2.50;;;19.80;72.60;;;;;;5054611;28;20429;-65
2022/05/13 11:31:20;;;;;;;6.65;2.67;;;19.90;73.40;;;;;;5053163;28;20029;-65
2022/05/13 11:34:09;;;;;;;6.88;3.25;;;19.90;73.30;;;;;;5052867;28;20075;-65
2022/05/13 11:36:57;;;;;;;4.18;2.60;;;20.00;72.60;;;;;;5054169;28;20131;-64
2022/05/13 11:39:28;;;;;;;6.28;2.58;;;20.10;72.20;;;;;;5054958;28;20472;-65
2022/05/13 11:41:59;;;;;;;5.18;2.83;;;20.20;71.10;;;;;;5055711;28;20044;-65
2022/05/13 11:45:09;;;;;;;5.85;2.88;;;20.30;71.50;;;;;;5052498;28;20041;-65
2022/05/13 11:48:01;;;;;;;10.02;2.92;;;20.40;70.20;;;;;;5054333;28;20036;-65
2022/05/13 11:50:30;;;;;;;7.80;3.13;;;20.40;70.10;;;;;;5037666;28;20058;-65
2022/05/13 11:52:58;;;;;;;9.02;2.90;;;20.50;70.00;;;;;;5056162;28;20875;-66
2022/05/13 11:55:29;;;;;;;5.75;3.17;;;20.50;70.40;;;;;;5056151;28;20036;-65
2022/05/13 11:57:55;;;;;;;6.05;3.15;;;20.60;70.60;;;;;;5054415;28;20484;-65
2022/05/13 12:00:33;;;;;;;4.93;2.78;;;20.60;70.20;;;;;;5052699;28;20130;-65
2022/05/13 12:03:08;;;;;;;7.50;2.97;;;20.60;69.50;;;;;;5054258;28;20033;-65
2022/05/13 12:05:57;;;;;;;7.75;2.97;;;20.60;69.00;;;;;;5054946;28;20037;-65
2022/05/13 12:08:37;;;;;;;8.18;2.65;;;20.70;69.70;;;;;;5052892;28;20047;-65
2022/05/13 12:11:03;;;;;;;4.68;2.60;;;20.70;70.40;;;;;;5053571;28;20037;-65
2022/05/13 12:13:53;;;;;;;6.05;2.80;;;20.70;69.80;;;;;;5057184;28;20032;-66
2022/05/13 12:16:24;;;;;;;5.50;2.65;;;20.80;69.00;;;;;;5053423;28;20037;-65
2022/05/13 12:19:22;;;;;;;4.22;2.55;;;20.70;69.20;;;;;;5054260;28;20036;-65
2022/05/13 12:21:50;;;;;;;4.32;2.75;;;20.80;68.10;;;;;;5056353;28;20111;-65
2022/05/13 12:24:22;;;;;;;4.43;2.70;;;20.70;69.40;;;;;;5053232;28;20127;-65
2022/05/13 12:26:53;;;;;;;5.78;2.85;;;20.70;68.80;;;;;;5052710;28;20048;-65
2022/05/13 12:29:20;;;;;;;5.63;2.85;;;20.70;68.50;;;;;;5054851;28;20036;-66
2022/05/13 12:31:55;;;;;;;4.38;2.40;;;20.70;68.50;;;;;;5054881;28;20469;-65
2022/05/13 12:40:06;;;;;;;6.35;2.75;;;20.70;68.60;;;;;;5055758;28;20135;-65
2022/05/13 12:42:46;;;;;;;7.15;3.15;;;20.70;69.00;;;;;;5049260;28;20056;-65
2022/05/13 12:45:20;;;;;;;7.00;2.80;;;20.80;68.10;;;;;;5049589;28;20530;-65
2022/05/13 12:48:06;;;;;;;4.35;2.72;;;20.80;68.30;;;;;;5052272;28;20449;-63
2022/05/13 12:50:49;;;;;;;4.72;2.72;;;20.80;68.50;;;;;;5052850;28;20033;-64
2022/05/13 12:53:30;;;;;;;4.57;2.45;;;20.80;68.80;;;;;;5052221;28;20131;-64
2022/05/13 12:56:07;;;;;;;4.28;2.50;;;20.90;67.90;;;;;;5049996;28;20032;-66
2022/05/13 12:58:36;;;;;;;5.00;2.78;;;20.90;68.00;;;;;;5049472;28;20025;-65
2022/05/13 13:01:01;;;;;;;3.78;2.83;;;20.90;68.60;;;;;;5051431;28;20119;-65
2022/05/13 13:03:27;;;;;;;4.65;2.67;;;21.00;68.80;;;;;;5058828;28;20744;-65
2022/05/13 13:06:00;;;;;;;4.95;3.03;;;21.10;68.80;;;;;;5051269;28;20058;-65
2022/05/13 13:08:34;;;;;;;4.97;2.42;;;21.10;68.40;;;;;;5055801;28;20029;-65
2022/05/13 13:11:22;;;;;;;4.80;2.83;;;21.30;67.10;;;;;;5054972;28;20033;-66
2022/05/13 13:14:11;;;;;;;5.20;2.88;;;21.30;66.00;;;;;;5054021;28;20056;-66
2022/05/13 13:16:57;;;;;;;3.75;2.75;;;21.30;66.60;;;;;;5054895;28;20040;-65
2022/05/13 13:19:26;;;;;;;4.57;2.60;;;21.40;65.40;;;;;;5055655;28;20042;-65
2022/05/13 13:22:08;;;;;;;6.07;2.80;;;21.40;66.10;;;;;;5057034;28;20106;-66
2022/05/13 13:24:37;;;;;;;3.53;2.70;;;21.40;65.50;;;;;;5060815;28;20041;-65
2022/05/13 13:27:05;;;;;;;3.35;2.85;;;21.40;65.90;;;;;;5059882;28;20032;-65
2022/05/13 13:29:37;;;;;;;5.97;3.25;;;21.40;66.20;;;;;;5056542;28;20527;-65
2022/05/13 13:32:12;;;;;;;5.80;2.80;;;21.40;65.80;;;;;;5052433;28;20174;-65